Time;durP1;ratioP1;P1;durP2;ratioP2;P2;SDS_P1;SDS_P2;PMS_P1;PMS_P2;Temp;Humidity;BMP_temperature;BMP_pressure;BME280_temperature;BME280_humidity;BME280_pressure;Samples;Min_cycle;Max_cycle;Signal;HPM_P1;HPM_P2
2021/07/02 00:00:09;;;;;;;37.37;23.37;;;;;;;12.86;89.05;101028.47;675608;29;1204;-83
2021/07/02 00:00:32;;;;;;;36.95;23.65;;;;;;;12.86;89.41;101044.22;677412;29;1008;-83
2021/07/02 00:00:53;;;;;;;39.70;24.20;;;;;;;12.87;89.32;101041.59;683353;28;3061;-83
2021/07/02 00:01:13;;;;;;;37.47;23.47;;;;;;;12.86;89.54;101029.38;681905;28;2766;-83
2021/07/02 00:01:34;;;;;;;35.33;22.33;;;;;;;12.90;89.50;101027.56;677364;28;3129;-83
2021/07/02 00:01:54;;;;;;;35.33;22.83;;;;;;;12.89;89.32;101023.19;674807;29;5156;-83
2021/07/02 00:02:18;;;;;;;35.60;22.67;;;;;;;12.89;89.60;101034.59;680050;28;1718;-83
2021/07/02 00:02:42;;;;;;;36.50;23.13;;;;;;;12.88;89.45;101031.97;679178;28;2802;-83
2021/07/02 00:03:03;;;;;;;37.78;23.65;;;;;;;12.88;89.74;101022.34;680943;29;1420;-83
2021/07/02 00:03:24;;;;;;;40.05;24.15;;;;;;;12.87;90.26;101028.47;679974;28;1680;-83
2021/07/02 00:03:44;;;;;;;40.70;24.77;;;;;;;12.85;90.82;101034.59;680117;28;2752;-83
2021/07/02 00:04:06;;;;;;;39.50;24.13;;;;;;;12.84;90.41;101025.88;680165;28;3481;-83
2021/07/02 00:04:26;;;;;;;40.60;24.33;;;;;;;12.80;90.93;101034.66;676955;29;2225;-83
2021/07/02 00:04:49;;;;;;;40.67;24.27;;;;;;;12.80;90.94;101023.31;677236;29;4523;-83
2021/07/02 00:05:11;;;;;;;39.72;24.08;;;;;;;12.79;90.90;101022.41;680313;28;1460;-83
2021/07/02 00:05:32;;;;;;;38.67;23.67;;;;;;;12.77;90.95;101027.66;678883;29;1272;-83
2021/07/02 00:05:52;;;;;;;41.17;24.03;;;;;;;12.78;91.00;101024.19;680008;28;2269;-83
2021/07/02 00:06:12;;;;;;;40.17;24.13;;;;;;;12.76;90.32;101020.69;677292;29;1531;-83
2021/07/02 00:06:33;;;;;;;36.90;23.17;;;;;;;12.77;90.72;101029.44;676233;29;1347;-83
2021/07/02 00:06:56;;;;;;;39.03;23.17;;;;;;;12.78;90.73;101031.19;678243;29;1491;-83
2021/07/02 00:07:17;;;;;;;38.22;23.17;;;;;;;12.77;90.28;101018.94;676316;29;2156;-83
2021/07/02 00:07:37;;;;;;;34.13;22.97;;;;;;;12.77;89.81;101024.19;676464;29;4569;-83
2021/07/02 00:07:58;;;;;;;36.70;23.10;;;;;;;12.78;89.49;101020.69;677086;29;3024;-82
2021/07/02 00:08:18;;;;;;;37.53;23.05;;;;;;;12.77;89.29;101021.56;677026;29;1518;-82
2021/07/02 00:08:39;;;;;;;38.97;24.13;;;;;;;12.78;89.29;101028.56;677735;29;1066;-83
2021/07/02 00:09:00;;;;;;;35.92;23.13;;;;;;;12.79;89.35;101035.53;676426;29;1341;-83
2021/07/02 00:09:20;;;;;;;38.85;24.33;;;;;;;12.79;90.39;101025.03;679634;28;1616;-83
2021/07/02 00:09:41;;;;;;;40.67;24.60;;;;;;;12.80;90.59;101023.31;679659;29;1262;-83
2021/07/02 00:10:03;;;;;;;41.50;24.58;;;;;;;12.79;90.59;101032.91;677819;29;3410;-83
2021/07/02 00:10:24;;;;;;;40.40;24.65;;;;;;;12.78;90.62;101025.94;677944;29;1131;-83
2021/07/02 00:10:47;;;;;;;37.80;23.77;;;;;;;12.78;90.56;101026.78;677659;29;4514;-83
2021/07/02 00:11:07;;;;;;;36.70;23.15;;;;;;;12.78;90.22;101026.78;677282;29;3428;-83
2021/07/02 00:11:28;;;;;;;38.20;23.33;;;;;;;12.80;90.39;101029.41;678205;29;1502;-83
2021/07/02 00:11:49;;;;;;;37.40;22.95;;;;;;;12.81;90.19;101025.00;680051;28;1624;-83
2021/07/02 00:12:09;;;;;;;40.83;24.53;;;;;;;12.80;90.09;101018.91;677797;28;1317;-83
2021/07/02 00:12:30;;;;;;;40.08;24.65;;;;;;;12.81;90.22;101031.16;678826;29;1444;-83
2021/07/02 00:12:50;;;;;;;39.35;24.02;;;;;;;12.81;90.37;101025.00;674504;29;1292;-83
2021/07/02 00:13:11;;;;;;;41.47;25.37;;;;;;;12.81;90.95;101025.91;675356;29;1783;-83
2021/07/02 00:13:31;;;;;;;45.03;25.60;;;;;;;12.79;90.97;101019.78;676107;29;1318;-83
2021/07/02 00:13:52;;;;;;;45.30;25.20;;;;;;;12.79;91.24;101025.03;673886;29;4504;-83
2021/07/02 00:14:12;;;;;;;40.10;24.10;;;;;;;12.77;90.77;101026.81;678024;29;1118;-83
2021/07/02 00:14:33;;;;;;;42.27;24.33;;;;;;;12.77;91.29;101030.28;676108;29;2582;-83
2021/07/02 00:14:53;;;;;;;43.72;24.92;;;;;;;12.79;91.59;101022.41;680910;28;1312;-83
2021/07/02 00:15:13;;;;;;;43.83;25.53;;;;;;;12.80;91.14;101021.53;683206;28;1369;-84
2021/07/02 00:15:34;;;;;;;41.78;24.60;;;;;;;12.80;91.53;101023.31;681021;28;1198;-82
2021/07/02 00:15:54;;;;;;;41.30;24.67;;;;;;;12.79;91.83;101025.03;680179;28;1656;-83
2021/07/02 00:16:15;;;;;;;41.85;25.23;;;;;;;12.78;91.68;101032.03;683322;28;1838;-83
2021/07/02 00:16:35;;;;;;;43.47;25.47;;;;;;;12.77;91.82;101024.19;682636;28;4543;-83
2021/07/02 00:16:55;;;;;;;44.30;25.13;;;;;;;12.83;91.77;101023.28;682906;28;2184;-83
2021/07/02 00:17:16;;;;;;;43.50;25.45;;;;;;;12.80;92.04;101023.31;681296;28;1559;-83
2021/07/02 00:17:36;;;;;;;40.90;24.53;;;;;;;12.81;91.88;101022.41;684021;28;1566;-83
2021/07/02 00:17:57;;;;;;;41.33;24.08;;;;;;;12.80;91.65;101024.16;680085;28;4045;-83
2021/07/02 00:18:17;;;;;;;43.58;24.52;;;;;;;12.81;91.84;101022.41;679744;28;2605;-83
2021/07/02 00:18:38;;;;;;;43.30;24.30;;;;;;;12.79;91.64;101032.91;679650;28;2829;-84
2021/07/02 00:18:58;;;;;;;43.57;24.43;;;;;;;12.77;91.99;101029.44;678838;29;1591;-83
2021/07/02 00:19:19;;;;;;;43.97;25.20;;;;;;;12.75;92.04;101021.59;679874;28;1619;-83
2021/07/02 00:19:39;;;;;;;41.83;25.25;;;;;;;12.74;91.88;101040.81;677810;29;4651;-82
2021/07/02 00:20:00;;;;;;;38.50;23.97;;;;;;;12.72;91.07;101026.84;675835;29;1691;-83
2021/07/02 00:20:23;;;;;;;37.08;23.40;;;;;;;12.73;91.07;101025.94;676122;29;1322;-83
2021/07/02 00:20:44;;;;;;;43.97;24.70;;;;;;;12.73;92.05;101022.47;676749;29;1385;-83
2021/07/02 00:21:04;;;;;;;46.53;25.33;;;;;;;12.71;92.35;101021.59;675228;29;1408;-83
2021/07/02 00:21:25;;;;;;;49.73;26.00;;;;;;;12.69;92.57;101020.75;681005;28;2143;-83
2021/07/02 00:21:45;;;;;;;50.13;25.90;;;;;;;12.70;92.45;101019.88;682533;28;2484;-83
2021/07/02 00:22:06;;;;;;;46.40;25.17;;;;;;;12.69;92.63;101039.97;683317;28;1707;-83
2021/07/02 00:22:30;;;;;;;44.85;25.50;;;;;;;12.71;92.70;101018.97;682895;28;2011;-82
2021/07/02 00:22:50;;;;;;;42.55;25.38;;;;;;;12.70;92.51;101020.75;677747;28;4510;-83
2021/07/02 00:23:11;;;;;;;43.33;25.17;;;;;;;12.80;92.43;101036.41;676406;29;1490;-84
2021/07/02 00:23:32;;;;;;;41.97;24.03;;;;;;;12.78;91.29;101018.06;677945;28;1587;-83
2021/07/02 00:23:53;;;;;;;39.88;23.23;;;;;;;12.78;91.61;101021.56;680702;28;1732;-83
2021/07/02 00:24:13;;;;;;;43.22;24.73;;;;;;;12.78;92.13;101015.44;681704;28;1563;-84
2021/07/02 00:24:34;;;;;;;44.42;24.92;;;;;;;12.76;91.98;101046.06;681458;28;1382;-83
2021/07/02 00:24:54;;;;;;;39.73;24.40;;;;;;;12.77;91.86;101042.56;679175;28;3067;-83
2021/07/02 00:25:15;;;;;;;38.47;23.88;;;;;;;12.76;91.89;101019.81;679877;29;2690;-83
2021/07/02 00:25:37;;;;;;;40.80;24.02;;;;;;;12.74;91.59;101019.84;679694;28;4503;-82
2021/07/02 00:25:59;;;;;;;36.90;22.77;;;;;;;12.73;91.54;101018.09;678107;29;1704;-83
2021/07/02 00:26:19;;;;;;;38.00;23.17;;;;;;;12.73;91.37;101017.22;678144;29;1696;-84
2021/07/02 00:26:40;;;;;;;38.83;23.63;;;;;;;12.73;91.50;101017.22;676758;29;1541;-83
2021/07/02 00:27:00;;;;;;;39.72;23.85;;;;;;;12.73;91.64;101032.97;674278;29;1361;-83
2021/07/02 00:27:23;;;;;;;46.63;25.98;;;;;;;12.70;92.00;101038.25;678569;29;1510;-82
2021/07/02 00:27:46;;;;;;;43.10;25.07;;;;;;;12.72;91.92;101016.38;682946;28;1180;-83
2021/07/02 00:28:09;;;;;;;43.25;25.33;;;;;;;12.73;91.93;101041.69;681044;28;2499;-83
2021/07/02 00:28:32;;;;;;;45.92;25.70;;;;;;;12.80;91.88;101031.16;677786;29;3587;-83
2021/07/02 00:28:53;;;;;;;46.63;25.30;;;;;;;12.87;91.76;101015.34;679028;28;4461;-83
2021/07/02 00:29:13;;;;;;;46.00;25.47;;;;;;;13.02;91.37;101037.97;681874;28;1450;-83
2021/07/02 00:29:34;;;;;;;41.92;24.33;;;;;;;12.98;90.21;101019.66;677727;29;1642;-83
2021/07/02 00:29:57;;;;;;;41.08;23.50;;;;;;;12.94;90.57;101045.03;679092;29;1516;-83
2021/07/02 00:30:18;;;;;;;41.97;24.27;;;;;;;13.06;90.69;101030.94;677105;29;1312;-84
2021/07/02 00:30:42;;;;;;;43.03;24.67;;;;;;;13.08;90.75;101048.44;674172;29;1301;-83
2021/07/02 00:31:02;;;;;;;38.13;23.98;;;;;;;13.04;89.77;101037.94;674694;29;1411;-83
2021/07/02 00:31:23;;;;;;;39.03;24.52;;;;;;;13.02;90.05;101016.97;675148;29;1196;-83
2021/07/02 00:31:43;;;;;;;38.80;23.90;;;;;;;12.95;89.77;101045.00;675931;29;4608;-83
2021/07/02 00:32:05;;;;;;;40.80;23.63;;;;;;;12.94;90.20;101017.06;676289;29;2702;-83
2021/07/02 00:32:25;;;;;;;40.95;24.67;;;;;;;12.91;90.14;101011.81;674737;29;1400;-83
2021/07/02 00:32:46;;;;;;;38.67;24.35;;;;;;;12.89;90.67;101039.84;676594;29;1649;-83
2021/07/02 00:33:09;;;;;;;40.53;24.60;;;;;;;12.95;90.57;101016.16;675956;29;1742;-83
2021/07/02 00:33:29;;;;;;;42.45;24.75;;;;;;;13.00;91.20;101012.63;674913;29;1685;-83
2021/07/02 00:33:50;;;;;;;41.77;25.43;;;;;;;12.99;90.88;101042.34;678462;29;1314;-83
2021/07/02 00:34:11;;;;;;;44.25;25.65;;;;;;;12.98;90.64;101014.41;677644;29;2035;-84
2021/07/02 00:34:31;;;;;;;43.27;24.70;;;;;;;12.95;90.31;101057.28;676269;29;1175;-83
2021/07/02 00:34:54;;;;;;;39.00;24.50;;;;;;;12.93;90.14;101025.81;674356;29;4490;-83
2021/07/02 00:35:15;;;;;;;38.22;23.67;;;;;;;12.91;90.16;101019.69;670204;29;2614;-83
2021/07/02 00:35:36;;;;;;;39.30;24.50;;;;;;;12.89;89.93;101013.59;674950;29;3014;-83
2021/07/02 00:35:56;;;;;;;36.13;23.65;;;;;;;12.89;90.43;101024.09;677465;29;2457;-83
2021/07/02 00:36:16;;;;;;;37.40;23.73;;;;;;;12.89;90.55;101012.72;678127;29;1608;-83
2021/07/02 00:36:39;;;;;;;35.65;22.85;;;;;;;12.88;89.71;101014.47;677153;29;1915;-83
2021/07/02 00:37:00;;;;;;;35.28;23.40;;;;;;;12.87;89.69;101022.34;676955;29;1400;-83
2021/07/02 00:37:20;;;;;;;36.27;23.13;;;;;;;12.85;89.56;101026.72;676003;29;1149;-83
2021/07/02 00:37:44;;;;;;;38.08;23.40;;;;;;;12.84;89.53;101009.28;672359;29;4613;-83
2021/07/02 00:38:05;;;;;;;39.00;24.00;;;;;;;12.83;89.42;101025.88;675901;29;1766;-83
2021/07/02 00:38:26;;;;;;;37.20;23.17;;;;;;;12.83;89.24;101013.63;675291;29;1336;-83
2021/07/02 00:38:48;;;;;;;36.80;24.15;;;;;;;12.82;88.92;101019.78;674728;29;2408;-83
2021/07/02 00:39:09;;;;;;;37.83;23.70;;;;;;;12.81;88.80;101025.91;674743;29;1202;-83
2021/07/02 00:39:31;;;;;;;39.15;23.00;;;;;;;12.80;89.33;101026.78;674102;29;1400;-83
2021/07/02 00:39:52;;;;;;;39.85;23.75;;;;;;;12.83;90.02;101032.00;675216;29;2003;-83
2021/07/02 00:40:15;;;;;;;40.13;24.17;;;;;;;12.84;90.07;101033.75;674703;29;1481;-83
2021/07/02 00:40:36;;;;;;;41.03;24.50;;;;;;;12.81;90.86;101020.66;674588;29;4699;-83
2021/07/02 00:40:57;;;;;;;40.58;24.45;;;;;;;12.80;90.44;101008.41;671346;29;1724;-83
2021/07/02 00:41:17;;;;;;;39.58;23.95;;;;;;;12.78;90.41;101021.56;674585;29;1656;-83
2021/07/02 00:41:38;;;;;;;37.50;23.27;;;;;;;12.77;89.83;101019.81;671964;29;1418;-83
2021/07/02 00:41:59;;;;;;;35.80;22.45;;;;;;;12.78;90.43;101033.81;674739;29;1336;-83
2021/07/02 00:42:19;;;;;;;35.55;22.92;;;;;;;12.78;90.72;101000.56;676759;29;1913;-83
2021/07/02 00:42:40;;;;;;;38.60;23.70;;;;;;;12.80;90.28;101007.56;678523;29;1793;-83
2021/07/02 00:43:01;;;;;;;38.47;23.55;;;;;;;12.78;90.61;101003.19;678524;29;1490;-83
2021/07/02 00:43:21;;;;;;;36.97;23.27;;;;;;;12.78;90.67;100997.09;677053;29;1830;-82
2021/07/02 00:43:56;;;;;;;37.93;24.00;;;;;;;12.78;90.58;100999.69;676531;28;4522;-83
2021/07/02 00:44:16;;;;;;;41.40;24.65;;;;;;;12.76;90.48;101018.06;677358;29;1500;-83
2021/07/02 00:44:37;;;;;;;38.13;23.20;;;;;;;12.76;90.09;100997.06;679274;29;1649;-83
2021/07/02 00:44:58;;;;;;;35.63;22.98;;;;;;;12.78;89.95;101031.19;680493;28;1519;-83
2021/07/02 00:45:18;;;;;;;36.53;22.50;;;;;;;12.75;89.51;101003.22;678507;28;1423;-83
2021/07/02 00:45:39;;;;;;;35.67;22.95;;;;;;;12.76;89.47;101019.81;678441;28;1369;-83
2021/07/02 00:46:00;;;;;;;39.08;24.50;;;;;;;12.77;89.69;101029.44;676156;29;2667;-83
2021/07/02 00:46:21;;;;;;;35.47;23.02;;;;;;;12.77;89.51;101035.53;677550;29;2453;-83
2021/07/02 00:46:42;;;;;;;36.55;23.02;;;;;;;12.83;90.25;101000.50;678747;28;4977;-83
2021/07/02 00:47:02;;;;;;;39.70;24.27;;;;;;;12.83;90.09;101013.63;678221;29;1239;-83
2021/07/02 00:47:23;;;;;;;37.58;23.77;;;;;;;12.84;90.41;101007.50;677659;29;1466;-83
2021/07/02 00:47:44;;;;;;;36.95;23.67;;;;;;;12.82;90.51;100990.94;677767;29;1455;-83
2021/07/02 00:48:05;;;;;;;40.95;24.67;;;;;;;12.94;90.41;101022.31;675350;29;1339;-83
2021/07/02 00:48:29;;;;;;;39.92;24.13;;;;;;;12.90;90.13;101012.72;676104;29;1520;-83
2021/07/02 00:48:50;;;;;;;37.95;23.88;;;;;;;12.94;90.50;101019.69;680062;29;1128;-83
2021/07/02 00:49:11;;;;;;;42.05;24.23;;;;;;;13.05;90.25;101000.31;680258;28;1344;-84
2021/07/02 00:49:35;;;;;;;41.60;23.92;;;;;;;13.12;89.71;101002.00;681175;28;2767;-83
2021/07/02 00:49:56;;;;;;;36.30;23.33;;;;;;;13.17;89.04;101004.59;679043;29;5280;-83
2021/07/02 00:50:16;;;;;;;34.65;22.52;;;;;;;13.08;88.87;100993.31;681280;28;1572;-83
2021/07/02 00:50:37;;;;;;;37.17;23.42;;;;;;;13.06;89.36;100996.81;678804;29;1407;-83
2021/07/02 00:50:58;;;;;;;38.27;24.43;;;;;;;13.15;89.32;101016.84;678001;29;1621;-83
2021/07/02 00:51:19;;;;;;;37.28;23.38;;;;;;;13.09;88.97;101005.53;674802;29;1714;-83
2021/07/02 00:51:39;;;;;;;36.72;22.85;;;;;;;13.06;88.62;101009.94;672078;29;1397;-83
2021/07/02 00:52:04;;;;;;;34.85;22.15;;;;;;;13.02;89.17;101016.13;674912;29;1429;-83
2021/07/02 00:52:26;;;;;;;41.20;24.13;;;;;;;12.95;89.55;101003.03;677509;29;1746;-83
2021/07/02 00:52:47;;;;;;;37.20;23.58;;;;;;;12.97;89.85;100989.88;676975;29;4571;-83
2021/07/02 00:53:08;;;;;;;38.58;23.98;;;;;;;12.95;89.44;101010.91;678350;29;1207;-83
2021/07/02 00:53:29;;;;;;;38.17;23.93;;;;;;;12.93;89.07;100994.31;677770;29;2998;-83
2021/07/02 00:53:50;;;;;;;38.55;24.00;;;;;;;12.94;89.62;100989.94;672777;29;1557;-83
2021/07/02 00:54:11;;;;;;;39.72;23.88;;;;;;;12.91;89.57;101000.47;672840;29;1282;-83
2021/07/02 00:54:35;;;;;;;39.37;23.73;;;;;;;12.89;89.59;101004.84;672359;29;1435;-84
2021/07/02 00:54:57;;;;;;;42.03;24.60;;;;;;;12.83;90.14;101005.75;674722;29;1567;-83
2021/07/02 00:55:21;;;;;;;39.85;23.88;;;;;;;12.81;90.01;100994.41;675340;29;1867;-83
2021/07/02 00:55:47;;;;;;;36.67;23.35;;;;;;;12.80;89.64;101002.31;674661;29;4551;-83
2021/07/02 00:56:12;;;;;;;37.25;23.30;;;;;;;12.78;89.62;100994.47;677520;29;2119;-83
2021/07/02 00:56:32;;;;;;;36.55;22.95;;;;;;;12.83;89.63;101002.28;679651;28;2831;-83
2021/07/02 00:56:56;;;;;;;38.70;23.65;;;;;;;12.83;90.18;100997.88;676944;29;2007;-84
2021/07/02 00:57:17;;;;;;;39.08;24.02;;;;;;;12.83;90.22;100992.63;678085;28;1657;-84
2021/07/02 00:57:38;;;;;;;40.67;24.97;;;;;;;12.85;90.46;100996.13;677319;29;1347;-83
2021/07/02 00:57:59;;;;;;;39.05;24.52;;;;;;;12.82;90.61;101001.41;671567;29;1278;-83
2021/07/02 00:58:23;;;;;;;41.70;24.45;;;;;;;12.80;90.32;101003.16;675647;29;1581;-83
2021/07/02 00:58:45;;;;;;;41.28;24.40;;;;;;;12.76;90.06;100997.06;675257;29;4516;-83
2021/07/02 00:59:07;;;;;;;37.38;24.00;;;;;;;12.77;90.53;101001.44;675555;29;1707;-83
2021/07/02 00:59:27;;;;;;;40.38;24.95;;;;;;;12.81;90.48;100999.66;677334;29;3559;-83
2021/07/02 00:59:48;;;;;;;40.28;24.58;;;;;;;12.83;90.68;101007.53;675676;29;1708;-83
2021/07/02 01:00:12;;;;;;;41.55;24.33;;;;;;;12.82;89.91;100990.03;677016;29;3043;-83
2021/07/02 01:00:33;;;;;;;40.78;24.88;;;;;;;12.83;90.24;100997.88;677632;29;1836;-83
2021/07/02 01:00:53;;;;;;;39.83;24.42;;;;;;;12.82;90.32;100996.16;675679;29;1717;-84
2021/07/02 01:01:17;;;;;;;41.50;24.53;;;;;;;12.76;91.26;100993.59;676607;29;1548;-82
2021/07/02 01:01:39;;;;;;;40.85;25.13;;;;;;;12.71;91.19;101000.63;674807;29;4554;-83
2021/07/02 01:02:04;;;;;;;41.70;24.88;;;;;;;12.70;90.91;100996.28;674824;29;1916;-83
2021/07/02 01:02:25;;;;;;;38.50;24.30;;;;;;;12.71;90.49;100996.25;675497;29;1411;-83
2021/07/02 01:02:46;;;;;;;39.28;24.13;;;;;;;12.71;89.72;101005.84;680800;28;1677;-83
2021/07/02 01:03:07;;;;;;;36.78;23.35;;;;;;;12.74;90.33;101003.22;679459;29;4252;-83
2021/07/02 01:03:28;;;;;;;38.30;23.77;;;;;;;12.72;90.09;101003.25;677355;29;1626;-83
2021/07/02 01:03:49;;;;;;;37.83;23.52;;;;;;;12.72;90.46;100991.88;680848;29;1613;-83
2021/07/02 01:04:11;;;;;;;37.42;23.90;;;;;;;12.72;89.91;100999.75;677830;29;1768;-83
2021/07/02 01:04:33;;;;;;;39.72;24.48;;;;;;;12.72;90.22;101000.63;679426;28;1619;-83
2021/07/02 01:04:53;;;;;;;42.92;24.85;;;;;;;12.71;90.32;100998.00;673306;29;4489;-83
2021/07/02 01:05:14;;;;;;;41.45;24.60;;;;;;;12.70;90.35;100997.13;674307;29;1266;-83
2021/07/02 01:05:36;;;;;;;42.10;24.75;;;;;;;12.75;90.57;101003.22;677949;29;1625;-83
2021/07/02 01:05:57;;;;;;;41.83;24.55;;;;;;;12.73;90.86;100996.25;680378;29;1391;-83
2021/07/02 01:06:18;;;;;;;42.65;24.73;;;;;;;12.72;90.69;100994.50;683395;28;1895;-83
2021/07/02 01:06:40;;;;;;;40.72;24.58;;;;;;;12.73;90.33;101001.50;677054;29;4157;-83
2021/07/02 01:07:03;;;;;;;41.45;24.75;;;;;;;12.72;90.27;101008.50;678435;29;1538;-83
2021/07/02 01:07:24;;;;;;;42.55;25.08;;;;;;;12.75;90.36;100994.47;680413;28;1657;-83
2021/07/02 01:07:46;;;;;;;41.43;24.90;;;;;;;12.85;90.68;100998.75;679834;28;4847;-83
2021/07/02 01:08:07;;;;;;;39.35;24.60;;;;;;;12.90;90.23;100994.34;682694;28;1508;-83
2021/07/02 01:08:27;;;;;;;42.53;25.13;;;;;;;12.92;90.20;100996.97;677904;29;1831;-83
2021/07/02 01:08:48;;;;;;;43.00;24.88;;;;;;;12.88;89.49;101021.47;680309;29;1509;-83
2021/07/02 01:09:09;;;;;;;40.67;24.30;;;;;;;12.90;90.11;100996.09;674690;29;2320;-83
2021/07/02 01:09:30;;;;;;;40.20;25.23;;;;;;;12.89;89.62;101024.09;675190;29;1469;-83
2021/07/02 01:09:52;;;;;;;42.55;24.48;;;;;;;12.88;90.02;100990.84;674380;29;3230;-83
2021/07/02 01:10:16;;;;;;;42.80;25.00;;;;;;;12.87;89.90;101010.09;676417;29;3499;-83
2021/07/02 01:10:42;;;;;;;39.97;24.48;;;;;;;12.84;90.02;101022.41;679673;28;4526;-83
2021/07/02 01:11:04;;;;;;;41.22;23.85;;;;;;;12.80;90.41;101005.78;679990;28;2001;-83
2021/07/02 01:11:26;;;;;;;41.15;24.50;;;;;;;12.79;90.37;101022.41;678092;29;1657;-83
2021/07/02 01:11:50;;;;;;;40.08;24.42;;;;;;;12.74;89.87;101006.72;679933;28;1625;-83
2021/07/02 01:12:12;;;;;;;38.25;23.45;;;;;;;12.74;90.67;100996.22;681672;28;1071;-83
2021/07/02 01:12:34;;;;;;;40.47;24.08;;;;;;;12.72;90.66;101005.88;676949;29;1301;-83
2021/07/02 01:12:55;;;;;;;40.85;24.17;;;;;;;12.72;90.41;100989.25;680086;29;1404;-84
2021/07/02 01:13:16;;;;;;;41.72;24.67;;;;;;;12.73;89.97;100996.25;677307;29;1502;-83
2021/07/02 01:13:37;;;;;;;38.88;24.38;;;;;;;12.72;90.27;100991.88;665416;29;5089;-83
2021/07/02 01:13:59;;;;;;;39.15;24.30;;;;;;;12.77;90.54;101003.19;680153;28;1624;-84
2021/07/02 01:14:22;;;;;;;40.37;24.67;;;;;;;12.75;90.19;100991.84;680678;28;1352;-83
2021/07/02 01:14:43;;;;;;;38.38;24.05;;;;;;;12.76;90.08;100990.97;681108;28;1746;-83
2021/07/02 01:15:04;;;;;;;38.85;24.23;;;;;;;12.74;90.09;101008.47;676227;29;1327;-83
2021/07/02 01:15:26;;;;;;;39.58;24.17;;;;;;;12.74;89.76;100992.75;673489;29;1422;-83
2021/07/02 01:16:12;;;;;;;39.35;24.13;;;;;;;12.71;89.38;100988.38;675627;29;3311;-83
2021/07/02 01:16:33;;;;;;;39.30;23.13;;;;;;;12.74;89.17;101008.47;675531;29;2766;-83
2021/07/02 01:16:56;;;;;;;38.05;23.35;;;;;;;12.71;89.22;100987.50;679388;28;4654;-83
2021/07/02 01:17:18;;;;;;;37.78;23.70;;;;;;;12.72;89.72;100995.38;680666;28;1493;-83
2021/07/02 01:17:38;;;;;;;39.63;24.17;;;;;;;12.72;90.45;101016.38;681543;28;1451;-83
2021/07/02 01:17:59;;;;;;;39.43;24.83;;;;;;;12.71;89.60;101018.97;680674;28;1285;-83
2021/07/02 01:18:24;;;;;;;37.57;24.10;;;;;;;12.72;89.71;100989.25;678620;29;1244;-84
2021/07/02 01:18:45;;;;;;;38.25;24.27;;;;;;;12.73;90.06;101007.59;681160;28;1580;-83
2021/07/02 01:19:07;;;;;;;41.35;25.17;;;;;;;12.71;90.07;101018.97;683246;28;1400;-83
2021/07/02 01:19:28;;;;;;;39.88;23.75;;;;;;;12.70;90.02;100991.88;683423;28;2438;-83
2021/07/02 01:19:52;;;;;;;39.33;23.50;;;;;;;12.71;89.88;100990.13;679778;28;4555;-83
2021/07/02 01:20:19;;;;;;;40.83;24.02;;;;;;;12.71;90.17;101013.72;677049;29;1434;-82
2021/07/02 01:20:42;;;;;;;41.10;25.02;;;;;;;12.71;90.10;101004.13;674538;29;1359;-83
2021/07/02 01:21:02;;;;;;;39.93;24.47;;;;;;;12.73;89.54;101002.34;675443;29;1197;-83
2021/07/02 01:21:24;;;;;;;39.28;23.65;;;;;;;12.72;90.22;101004.97;677768;29;1623;-83
2021/07/02 01:21:46;;;;;;;37.45;23.67;;;;;;;12.74;89.68;101016.34;677823;29;1445;-83
2021/07/02 01:22:16;;;;;;;38.33;23.38;;;;;;;12.73;89.78;100991.84;677246;29;1136;-83
2021/07/02 01:22:39;;;;;;;38.72;23.77;;;;;;;12.74;89.66;100988.34;676882;29;4544;-83
2021/07/02 01:23:00;;;;;;;36.25;23.50;;;;;;;12.72;89.35;100999.75;678023;29;1598;-83
2021/07/02 01:23:23;;;;;;;37.03;23.63;;;;;;;12.71;89.28;101012.00;679395;28;1520;-83
2021/07/02 01:23:43;;;;;;;41.00;24.17;;;;;;;12.73;89.63;101022.47;672566;29;1420;-83
2021/07/02 01:24:04;;;;;;;39.90;23.90;;;;;;;12.72;89.40;100987.50;674042;29;1190;-83
2021/07/02 01:24:26;;;;;;;39.95;24.00;;;;;;;12.72;89.58;101005.88;674297;29;1482;-83
2021/07/02 01:24:47;;;;;;;40.80;23.92;;;;;;;12.73;90.37;101018.09;680488;28;1436;-83
2021/07/02 01:25:08;;;;;;;38.25;23.73;;;;;;;12.74;89.84;101021.59;678375;29;1248;-83
2021/07/02 01:25:31;;;;;;;37.07;23.43;;;;;;;12.73;90.57;101017.22;672104;29;1406;-83
2021/07/02 01:25:52;;;;;;;38.10;23.48;;;;;;;12.72;90.61;100994.50;674333;29;4637;-83
2021/07/02 01:26:15;;;;;;;38.90;23.55;;;;;;;12.71;90.52;101013.72;672341;29;3609;-83
2021/07/02 01:26:36;;;;;;;38.15;23.40;;;;;;;12.72;89.62;101018.09;679353;29;1497;-84
2021/07/02 01:26:58;;;;;;;36.88;22.70;;;;;;;12.73;89.37;101004.09;674636;29;1528;-83
2021/07/02 01:27:20;;;;;;;35.95;22.50;;;;;;;12.73;89.84;101011.97;675285;29;1545;-83
2021/07/02 01:27:42;;;;;;;34.60;22.88;;;;;;;12.71;89.09;101017.25;678089;29;1692;-83
2021/07/02 01:28:04;;;;;;;38.53;23.58;;;;;;;12.74;89.42;100992.75;680551;28;1552;-83
2021/07/02 01:28:25;;;;;;;40.05;24.70;;;;;;;12.74;90.12;100998.84;680134;28;1600;-83
2021/07/02 01:28:46;;;;;;;42.17;25.17;;;;;;;12.73;90.31;101018.09;679560;28;4513;-83
2021/07/02 01:29:07;;;;;;;41.35;24.85;;;;;;;12.72;90.96;101002.34;680521;28;3444;-84
2021/07/02 01:29:27;;;;;;;44.10;25.23;;;;;;;12.69;90.95;100994.53;678254;29;1222;-83
2021/07/02 01:29:48;;;;;;;43.10;24.85;;;;;;;12.70;90.68;101022.50;675260;29;1431;-83
2021/07/02 01:30:10;;;;;;;43.90;25.25;;;;;;;12.71;91.30;100992.75;674784;29;1692;-83
2021/07/02 01:30:31;;;;;;;43.60;25.30;;;;;;;12.82;91.30;100993.53;675003;29;1330;-83
2021/07/02 01:30:52;;;;;;;42.97;25.20;;;;;;;12.95;90.47;101010.03;674849;29;1683;-83
2021/07/02 01:31:13;;;;;;;41.23;24.63;;;;;;;12.90;89.74;101024.94;676488;29;2020;-83
2021/07/02 01:31:34;;;;;;;39.92;24.58;;;;;;;12.87;89.27;100991.72;680470;28;1549;-83
2021/07/02 01:31:55;;;;;;;37.75;23.65;;;;;;;12.86;88.87;101000.50;676274;29;4593;-82
2021/07/02 01:32:17;;;;;;;38.35;23.30;;;;;;;12.83;89.23;101000.50;677610;29;1337;-83
2021/07/02 01:32:38;;;;;;;38.90;23.75;;;;;;;12.81;88.83;100991.81;671883;29;3836;-83
2021/07/02 01:32:58;;;;;;;41.30;24.80;;;;;;;12.81;89.10;100991.81;672678;29;1377;-83
2021/07/02 01:33:19;;;;;;;39.53;24.37;;;;;;;12.80;89.30;101016.28;677881;29;1651;-83
2021/07/02 01:33:41;;;;;;;39.63;23.85;;;;;;;12.79;88.72;100990.94;677959;29;1683;-83
2021/07/02 01:34:04;;;;;;;38.28;23.92;;;;;;;12.79;89.31;101014.53;677648;29;1060;-83
2021/07/02 01:34:26;;;;;;;41.05;24.63;;;;;;;12.79;89.13;101001.41;677140;29;1758;-83
2021/07/02 01:34:46;;;;;;;38.20;23.37;;;;;;;12.80;89.37;100999.69;675857;29;4542;-83
2021/07/02 01:35:10;;;;;;;38.42;24.17;;;;;;;12.81;89.93;100983.94;674082;29;1216;-83
2021/07/02 01:35:31;;;;;;;41.35;24.13;;;;;;;12.79;89.87;100993.56;679089;29;1397;-83
2021/07/02 01:35:52;;;;;;;40.22;24.13;;;;;;;12.79;89.72;100988.31;674712;29;3004;-83
2021/07/02 01:36:19;;;;;;;38.97;24.35;;;;;;;12.76;89.72;100989.19;675796;29;1377;-83
2021/07/02 01:36:40;;;;;;;39.78;24.67;;;;;;;12.76;89.54;100989.19;672361;29;1917;-83
2021/07/02 01:37:05;;;;;;;38.85;23.90;;;;;;;12.76;89.10;100998.84;679739;28;1367;-83
2021/07/02 01:37:26;;;;;;;39.15;23.55;;;;;;;12.75;90.01;100995.34;677159;29;1395;-83
2021/07/02 01:37:50;;;;;;;37.63;23.42;;;;;;;12.73;89.64;101010.22;677786;29;4523;-83
2021/07/02 01:38:12;;;;;;;36.72;22.92;;;;;;;12.74;89.86;101005.84;677971;29;1310;-83
2021/07/02 01:38:34;;;;;;;42.38;24.75;;;;;;;12.74;90.24;100985.72;677800;29;1572;-83
2021/07/02 01:38:55;;;;;;;42.75;25.50;;;;;;;12.77;90.55;101025.06;679011;29;2585;-83
2021/07/02 01:39:16;;;;;;;42.40;25.63;;;;;;;12.83;90.50;101007.53;680193;28;4328;-82
2021/07/02 01:39:40;;;;;;;40.70;24.50;;;;;;;12.82;90.38;100985.69;680361;28;1721;-83
2021/07/02 01:40:03;;;;;;;37.85;24.23;;;;;;;12.78;89.23;100999.69;680348;28;1494;-83
2021/07/02 01:40:24;;;;;;;35.75;23.15;;;;;;;12.78;89.30;100991.84;680425;28;1234;-83